SBFL/FLN METAR and TAF weather

Enter ICAO airport designator
Station Type Date Time Source
SBFL METAR 2021/05/14 23:00 UTC NOAA

SBFL 142300Z VRB01KT 9999 SCT023 BKN033 18/16 Q1020


Station Type Date Time Source
SBFL Decoded METAR 2021/05/14 23:00 UTC NOAA

Florianopolis Aeroporto , Brazil (SBFL) 27-40S 048-33W 5M
May 14, 2021 - 07:00 PM EDT / 2021.05.14 2300 UTC
Wind: Variable at 1 MPH (1 KT):0
Visibility: greater than 7 mile(s):0
Sky conditions: mostly cloudy
Temperature: 64 F (18 C)
Dew Point: 60 F (16 C)
Relative Humidity: 88%
Pressure (altimeter): 30.12 in. Hg (1020 hPa)
ob: SBFL 142300Z VRB01KT 9999 SCT023 BKN033 18/16 Q1020
cycle: 23

Station Type Date Time Source
SBFL TAF 2021/05/14 18:59 UTC NOAA

TAF SBFL 141500Z 1418/1518 12010KT CAVOK TX22/1418Z TN14/1506Z
BECMG 1419/1421 15005KT
BECMG 1501/1503 30005KT
BECMG 1513/1515 12008KT
RMK PDY

Example: see airport list